sensor_id;sensor_type;location;lat;lon;timestamp;temperature;humidity
1680;DHT22;838;51.794;12.258;2023-11-19T00:00:00;5.80;94.90
1680;DHT22;838;51.794;12.258;2023-11-19T00:02:26;5.80;95.10
1680;DHT22;838;51.794;12.258;2023-11-19T00:04:52;5.80;95.20
1680;DHT22;838;51.794;12.258;2023-11-19T00:07:18;5.80;95.30
1680;DHT22;838;51.794;12.258;2023-11-19T00:09:44;5.80;95.40
1680;DHT22;838;51.794;12.258;2023-11-19T00:12:10;5.90;95.40
1680;DHT22;838;51.794;12.258;2023-11-19T00:14:36;5.90;95.20
1680;DHT22;838;51.794;12.258;2023-11-19T00:17:02;5.90;95.30
1680;DHT22;838;51.794;12.258;2023-11-19T00:19:28;6.00;95.30
1680;DHT22;838;51.794;12.258;2023-11-19T00:21:53;5.90;94.90
1680;DHT22;838;51.794;12.258;2023-11-19T00:24:19;5.90;94.90
1680;DHT22;838;51.794;12.258;2023-11-19T00:26:45;5.90;95.00
1680;DHT22;838;51.794;12.258;2023-11-19T00:29:12;5.90;95.10
1680;DHT22;838;51.794;12.258;2023-11-19T00:31:39;5.90;95.00
1680;DHT22;838;51.794;12.258;2023-11-19T00:34:05;5.90;94.90
1680;DHT22;838;51.794;12.258;2023-11-19T00:36:31;6.00;94.90
1680;DHT22;838;51.794;12.258;2023-11-19T00:38:57;6.00;94.90
1680;DHT22;838;51.794;12.258;2023-11-19T00:41:23;6.00;94.80
1680;DHT22;838;51.794;12.258;2023-11-19T00:43:51;6.00;94.80
1680;DHT22;838;51.794;12.258;2023-11-19T00:46:16;6.00;94.80
1680;DHT22;838;51.794;12.258;2023-11-19T00:48:42;6.00;94.80
1680;DHT22;838;51.794;12.258;2023-11-19T00:51:08;6.00;94.80
1680;DHT22;838;51.794;12.258;2023-11-19T00:53:33;6.00;94.80
1680;DHT22;838;51.794;12.258;2023-11-19T00:55:59;6.00;94.90
1680;DHT22;838;51.794;12.258;2023-11-19T00:58:25;6.00;94.90
1680;DHT22;838;51.794;12.258;2023-11-19T01:00:51;5.90;94.80
1680;DHT22;838;51.794;12.258;2023-11-19T01:03:17;5.90;95.10
1680;DHT22;838;51.794;12.258;2023-11-19T01:05:42;5.90;95.00
1680;DHT22;838;51.794;12.258;2023-11-19T01:08:10;6.00;95.00
1680;DHT22;838;51.794;12.258;2023-11-19T01:10:38;6.00;95.00
1680;DHT22;838;51.794;12.258;2023-11-19T01:13:04;6.10;94.90
1680;DHT22;838;51.794;12.258;2023-11-19T01:15:32;6.10;94.80
1680;DHT22;838;51.794;12.258;2023-11-19T01:17:58;6.10;94.80
1680;DHT22;838;51.794;12.258;2023-11-19T01:20:24;5.90;94.80
1680;DHT22;838;51.794;12.258;2023-11-19T01:22:50;6.00;94.50
1680;DHT22;838;51.794;12.258;2023-11-19T01:25:16;6.00;94.60
1680;DHT22;838;51.794;12.258;2023-11-19T01:27:41;6.00;94.80
1680;DHT22;838;51.794;12.258;2023-11-19T01:30:08;6.10;94.90
1680;DHT22;838;51.794;12.258;2023-11-19T01:32:35;6.10;94.90
1680;DHT22;838;51.794;12.258;2023-11-19T01:35:03;6.10;94.90
1680;DHT22;838;51.794;12.258;2023-11-19T01:37:29;6.10;95.00
1680;DHT22;838;51.794;12.258;2023-11-19T01:39:56;6.00;95.20
1680;DHT22;838;51.794;12.258;2023-11-19T01:42:23;6.00;95.50
1680;DHT22;838;51.794;12.258;2023-11-19T01:44:58;6.00;95.70
1680;DHT22;838;51.794;12.258;2023-11-19T01:47:25;6.00;95.80
1680;DHT22;838;51.794;12.258;2023-11-19T01:49:51;6.00;95.70
1680;DHT22;838;51.794;12.258;2023-11-19T01:52:17;6.10;95.70
1680;DHT22;838;51.794;12.258;2023-11-19T01:54:44;6.00;95.70
1680;DHT22;838;51.794;12.258;2023-11-19T01:57:10;6.00;95.90
1680;DHT22;838;51.794;12.258;2023-11-19T01:59:37;6.00;95.90
1680;DHT22;838;51.794;12.258;2023-11-19T02:02:04;6.00;96.00
1680;DHT22;838;51.794;12.258;2023-11-19T02:04:31;6.10;96.00
1680;DHT22;838;51.794;12.258;2023-11-19T02:06:57;6.10;96.00
1680;DHT22;838;51.794;12.258;2023-11-19T02:09:23;6.10;95.90
1680;DHT22;838;51.794;12.258;2023-11-19T02:11:49;6.00;95.90
1680;DHT22;838;51.794;12.258;2023-11-19T02:14:17;6.10;96.00
1680;DHT22;838;51.794;12.258;2023-11-19T02:16:43;6.10;96.00
1680;DHT22;838;51.794;12.258;2023-11-19T02:19:09;6.10;96.00
1680;DHT22;838;51.794;12.258;2023-11-19T02:21:37;6.10;96.00
1680;DHT22;838;51.794;12.258;2023-11-19T02:24:07;6.10;96.00
1680;DHT22;838;51.794;12.258;2023-11-19T02:26:40;6.10;96.00
1680;DHT22;838;51.794;12.258;2023-11-19T02:29:06;6.10;96.00
1680;DHT22;838;51.794;12.258;2023-11-19T02:31:33;6.00;96.10
1680;DHT22;838;51.794;12.258;2023-11-19T02:34:00;6.10;96.20
1680;DHT22;838;51.794;12.258;2023-11-19T02:36:28;6.00;96.20
1680;DHT22;838;51.794;12.258;2023-11-19T02:38:53;6.00;96.40
1680;DHT22;838;51.794;12.258;2023-11-19T02:41:19;6.00;96.50
1680;DHT22;838;51.794;12.258;2023-11-19T02:43:45;6.00;96.60
1680;DHT22;838;51.794;12.258;2023-11-19T02:46:14;6.00;96.60
1680;DHT22;838;51.794;12.258;2023-11-19T02:48:40;6.00;96.70
1680;DHT22;838;51.794;12.258;2023-11-19T02:51:06;6.00;96.70
1680;DHT22;838;51.794;12.258;2023-11-19T02:53:35;6.10;96.70
1680;DHT22;838;51.794;12.258;2023-11-19T02:56:02;6.10;96.70
1680;DHT22;838;51.794;12.258;2023-11-19T02:58:37;6.10;96.80
1680;DHT22;838;51.794;12.258;2023-11-19T03:01:04;6.20;96.70
1680;DHT22;838;51.794;12.258;2023-11-19T03:03:38;6.10;96.50
1680;DHT22;838;51.794;12.258;2023-11-19T03:06:06;6.00;96.60
1680;DHT22;838;51.794;12.258;2023-11-19T03:08:32;6.10;96.70
1680;DHT22;838;51.794;12.258;2023-11-19T03:10:59;6.20;96.80
1680;DHT22;838;51.794;12.258;2023-11-19T03:13:24;6.30;96.60
1680;DHT22;838;51.794;12.258;2023-11-19T03:15:50;6.30;96.40
1680;DHT22;838;51.794;12.258;2023-11-19T03:18:17;6.40;96.30
1680;DHT22;838;51.794;12.258;2023-11-19T03:20:42;6.40;96.30
1680;DHT22;838;51.794;12.258;2023-11-19T03:23:08;6.40;96.20
1680;DHT22;838;51.794;12.258;2023-11-19T03:25:34;6.50;96.20
1680;DHT22;838;51.794;12.258;2023-11-19T03:28:00;6.60;96.10
1680;DHT22;838;51.794;12.258;2023-11-19T03:30:27;6.50;95.80
1680;DHT22;838;51.794;12.258;2023-11-19T03:32:54;6.50;96.00
1680;DHT22;838;51.794;12.258;2023-11-19T03:35:21;6.40;96.10
1680;DHT22;838;51.794;12.258;2023-11-19T03:37:46;6.50;96.10
1680;DHT22;838;51.794;12.258;2023-11-19T03:40:12;6.50;96.10
1680;DHT22;838;51.794;12.258;2023-11-19T03:42:38;6.40;96.10
1680;DHT22;838;51.794;12.258;2023-11-19T03:45:06;6.50;96.10
1680;DHT22;838;51.794;12.258;2023-11-19T03:47:34;6.50;96.10
1680;DHT22;838;51.794;12.258;2023-11-19T03:50:00;6.60;96.20
1680;DHT22;838;51.794;12.258;2023-11-19T03:52:25;6.50;96.10
1680;DHT22;838;51.794;12.258;2023-11-19T03:54:52;6.50;96.10
1680;DHT22;838;51.794;12.258;2023-11-19T03:57:20;6.60;96.20
1680;DHT22;838;51.794;12.258;2023-11-19T03:59:46;6.70;96.20
1680;DHT22;838;51.794;12.258;2023-11-19T04:02:12;6.70;96.20
1680;DHT22;838;51.794;12.258;2023-11-19T04:04:38;6.60;96.10
1680;DHT22;838;51.794;12.258;2023-11-19T04:07:06;6.60;96.20
1680;DHT22;838;51.794;12.258;2023-11-19T04:09:32;6.60;96.20
1680;DHT22;838;51.794;12.258;2023-11-19T04:12:03;6.60;96.20
1680;DHT22;838;51.794;12.258;2023-11-19T04:14:29;6.60;96.20
1680;DHT22;838;51.794;12.258;2023-11-19T04:16:54;6.60;96.40
1680;DHT22;838;51.794;12.258;2023-11-19T04:19:20;6.60;96.50
1680;DHT22;838;51.794;12.258;2023-11-19T04:21:47;6.70;96.60
1680;DHT22;838;51.794;12.258;2023-11-19T04:24:13;6.70;96.70
1680;DHT22;838;51.794;12.258;2023-11-19T04:26:43;6.70;96.80
1680;DHT22;838;51.794;12.258;2023-11-19T04:29:12;6.80;96.70
1680;DHT22;838;51.794;12.258;2023-11-19T04:31:39;6.80;96.70
1680;DHT22;838;51.794;12.258;2023-11-19T04:34:05;6.70;96.70
1680;DHT22;838;51.794;12.258;2023-11-19T04:36:34;6.70;96.90
1680;DHT22;838;51.794;12.258;2023-11-19T04:39:00;6.80;97.00
1680;DHT22;838;51.794;12.258;2023-11-19T04:41:27;6.80;97.10
1680;DHT22;838;51.794;12.258;2023-11-19T04:43:55;6.90;97.20
1680;DHT22;838;51.794;12.258;2023-11-19T04:46:21;6.90;97.10
1680;DHT22;838;51.794;12.258;2023-11-19T04:48:49;6.90;97.10
1680;DHT22;838;51.794;12.258;2023-11-19T04:51:15;6.90;97.20
1680;DHT22;838;51.794;12.258;2023-11-19T04:53:41;7.00;97.20
1680;DHT22;838;51.794;12.258;2023-11-19T04:56:11;7.00;97.20
1680;DHT22;838;51.794;12.258;2023-11-19T04:58:37;7.00;97.20
1680;DHT22;838;51.794;12.258;2023-11-19T05:01:06;7.10;97.30
1680;DHT22;838;51.794;12.258;2023-11-19T05:03:32;7.10;97.20
1680;DHT22;838;51.794;12.258;2023-11-19T05:06:00;7.20;97.40
1680;DHT22;838;51.794;12.258;2023-11-19T05:08:26;7.30;97.30
1680;DHT22;838;51.794;12.258;2023-11-19T05:10:52;7.30;97.20
1680;DHT22;838;51.794;12.258;2023-11-19T05:13:17;7.30;97.20
1680;DHT22;838;51.794;12.258;2023-11-19T05:15:43;7.30;97.30
1680;DHT22;838;51.794;12.258;2023-11-19T05:18:09;7.30;97.40
1680;DHT22;838;51.794;12.258;2023-11-19T05:20:34;7.30;97.40
1680;DHT22;838;51.794;12.258;2023-11-19T05:23:00;7.40;97.50
1680;DHT22;838;51.794;12.258;2023-11-19T05:25:26;7.40;97.50
1680;DHT22;838;51.794;12.258;2023-11-19T05:27:53;7.50;97.40
1680;DHT22;838;51.794;12.258;2023-11-19T05:30:18;7.50;97.40
1680;DHT22;838;51.794;12.258;2023-11-19T05:32:44;7.50;97.50
1680;DHT22;838;51.794;12.258;2023-11-19T05:35:11;7.50;97.40
1680;DHT22;838;51.794;12.258;2023-11-19T05:37:36;7.50;97.50
1680;DHT22;838;51.794;12.258;2023-11-19T05:40:02;7.60;97.50
1680;DHT22;838;51.794;12.258;2023-11-19T05:42:30;7.70;97.50
1680;DHT22;838;51.794;12.258;2023-11-19T05:44:55;7.80;97.50
1680;DHT22;838;51.794;12.258;2023-11-19T05:47:21;7.80;97.20
1680;DHT22;838;51.794;12.258;2023-11-19T05:49:47;7.90;97.20
1680;DHT22;838;51.794;12.258;2023-11-19T05:52:13;7.90;97.00
1680;DHT22;838;51.794;12.258;2023-11-19T05:54:38;8.00;97.00
1680;DHT22;838;51.794;12.258;2023-11-19T05:57:06;8.00;96.90
1680;DHT22;838;51.794;12.258;2023-11-19T05:59:35;8.00;96.80
1680;DHT22;838;51.794;12.258;2023-11-19T06:02:04;8.10;96.70
1680;DHT22;838;51.794;12.258;2023-11-19T06:04:30;8.10;96.80
1680;DHT22;838;51.794;12.258;2023-11-19T06:06:56;8.10;96.50
1680;DHT22;838;51.794;12.258;2023-11-19T06:09:21;8.10;96.50
1680;DHT22;838;51.794;12.258;2023-11-19T06:11:51;8.20;96.40
1680;DHT22;838;51.794;12.258;2023-11-19T06:14:18;8.20;96.20
1680;DHT22;838;51.794;12.258;2023-11-19T06:16:44;8.20;96.10
1680;DHT22;838;51.794;12.258;2023-11-19T06:19:09;8.20;96.20
1680;DHT22;838;51.794;12.258;2023-11-19T06:21:36;8.20;96.40
1680;DHT22;838;51.794;12.258;2023-11-19T06:24:02;8.30;96.40
1680;DHT22;838;51.794;12.258;2023-11-19T06:26:28;8.30;96.30
1680;DHT22;838;51.794;12.258;2023-11-19T06:28:54;8.30;96.40
1680;DHT22;838;51.794;12.258;2023-11-19T06:31:20;8.20;96.50
1680;DHT22;838;51.794;12.258;2023-11-19T06:33:46;8.20;96.60
1680;DHT22;838;51.794;12.258;2023-11-19T06:36:14;8.20;96.80
1680;DHT22;838;51.794;12.258;2023-11-19T06:38:42;8.20;96.80
1680;DHT22;838;51.794;12.258;2023-11-19T06:41:08;8.20;96.90
1680;DHT22;838;51.794;12.258;2023-11-19T06:43:37;8.20;96.80
1680;DHT22;838;51.794;12.258;2023-11-19T06:46:03;8.20;96.80
1680;DHT22;838;51.794;12.258;2023-11-19T06:48:34;8.20;96.80
1680;DHT22;838;51.794;12.258;2023-11-19T06:51:00;8.20;96.90
1680;DHT22;838;51.794;12.258;2023-11-19T06:53:26;8.10;96.90
1680;DHT22;838;51.794;12.258;2023-11-19T06:55:53;8.10;97.10
1680;DHT22;838;51.794;12.258;2023-11-19T06:58:19;8.10;97.30
1680;DHT22;838;51.794;12.258;2023-11-19T07:00:45;8.10;97.30
1680;DHT22;838;51.794;12.258;2023-11-19T07:03:12;8.10;97.50
1680;DHT22;838;51.794;12.258;2023-11-19T07:05:38;8.20;97.50
1680;DHT22;838;51.794;12.258;2023-11-19T07:08:05;8.20;97.70
1680;DHT22;838;51.794;12.258;2023-11-19T07:10:32;8.30;97.70
1680;DHT22;838;51.794;12.258;2023-11-19T07:12:59;8.30;97.90
1680;DHT22;838;51.794;12.258;2023-11-19T07:15:25;8.30;97.90
1680;DHT22;838;51.794;12.258;2023-11-19T07:17:50;8.40;98.00
1680;DHT22;838;51.794;12.258;2023-11-19T07:20:16;8.40;98.00
1680;DHT22;838;51.794;12.258;2023-11-19T07:22:43;8.50;98.10
1680;DHT22;838;51.794;12.258;2023-11-19T07:25:14;8.50;98.10
1680;DHT22;838;51.794;12.258;2023-11-19T07:27:40;8.50;98.10
1680;DHT22;838;51.794;12.258;2023-11-19T07:30:06;8.60;98.20
1680;DHT22;838;51.794;12.258;2023-11-19T07:32:35;8.70;98.30
1680;DHT22;838;51.794;12.258;2023-11-19T07:35:00;8.80;98.30
1680;DHT22;838;51.794;12.258;2023-11-19T07:37:26;9.00;98.40
1680;DHT22;838;51.794;12.258;2023-11-19T07:39:52;9.10;98.20
1680;DHT22;838;51.794;12.258;2023-11-19T07:42:17;9.20;98.20
1680;DHT22;838;51.794;12.258;2023-11-19T07:44:44;9.30;98.00
1680;DHT22;838;51.794;12.258;2023-11-19T07:47:09;9.40;97.80
1680;DHT22;838;51.794;12.258;2023-11-19T07:49:35;9.40;97.30
1680;DHT22;838;51.794;12.258;2023-11-19T07:52:01;9.40;97.00
1680;DHT22;838;51.794;12.258;2023-11-19T07:54:28;9.40;97.00
1680;DHT22;838;51.794;12.258;2023-11-19T07:56:54;9.50;97.00
1680;DHT22;838;51.794;12.258;2023-11-19T07:59:19;9.60;97.10
1680;DHT22;838;51.794;12.258;2023-11-19T08:01:45;9.60;96.90
1680;DHT22;838;51.794;12.258;2023-11-19T08:04:11;9.70;96.70
1680;DHT22;838;51.794;12.258;2023-11-19T08:06:37;9.70;96.50
1680;DHT22;838;51.794;12.258;2023-11-19T08:09:02;9.70;96.50
1680;DHT22;838;51.794;12.258;2023-11-19T08:11:28;9.80;96.70
1680;DHT22;838;51.794;12.258;2023-11-19T08:13:54;9.80;96.60
1680;DHT22;838;51.794;12.258;2023-11-19T08:16:19;9.90;96.80
1680;DHT22;838;51.794;12.258;2023-11-19T08:18:45;10.10;96.30
1680;DHT22;838;51.794;12.258;2023-11-19T08:21:11;10.20;96.00
1680;DHT22;838;51.794;12.258;2023-11-19T08:23:36;10.40;95.80
1680;DHT22;838;51.794;12.258;2023-11-19T08:26:04;10.60;95.40
1680;DHT22;838;51.794;12.258;2023-11-19T08:28:32;10.90;95.10
1680;DHT22;838;51.794;12.258;2023-11-19T08:31:00;11.30;93.80
1680;DHT22;838;51.794;12.258;2023-11-19T08:33:26;11.70;91.90
1680;DHT22;838;51.794;12.258;2023-11-19T08:35:52;12.00;89.50
1680;DHT22;838;51.794;12.258;2023-11-19T08:38:18;12.30;89.20
1680;DHT22;838;51.794;12.258;2023-11-19T08:40:44;12.70;87.30
1680;DHT22;838;51.794;12.258;2023-11-19T08:43:09;13.00;82.90
1680;DHT22;838;51.794;12.258;2023-11-19T08:45:35;13.20;81.60
1680;DHT22;838;51.794;12.258;2023-11-19T08:48:01;13.10;81.40
1680;DHT22;838;51.794;12.258;2023-11-19T08:50:27;13.10;81.30
1680;DHT22;838;51.794;12.258;2023-11-19T08:52:53;12.90;81.50
1680;DHT22;838;51.794;12.258;2023-11-19T08:55:20;12.80;84.70
1680;DHT22;838;51.794;12.258;2023-11-19T08:57:46;12.50;85.50
1680;DHT22;838;51.794;12.258;2023-11-19T09:00:12;12.30;86.70
1680;DHT22;838;51.794;12.258;2023-11-19T09:02:39;12.10;89.30
1680;DHT22;838;51.794;12.258;2023-11-19T09:05:06;12.20;90.30
1680;DHT22;838;51.794;12.258;2023-11-19T09:07:33;12.10;89.70
1680;DHT22;838;51.794;12.258;2023-11-19T09:09:59;12.20;90.30
1680;DHT22;838;51.794;12.258;2023-11-19T09:12:24;12.30;89.80
1680;DHT22;838;51.794;12.258;2023-11-19T09:14:50;12.30;89.70
1680;DHT22;838;51.794;12.258;2023-11-19T09:17:16;12.30;89.20
1680;DHT22;838;51.794;12.258;2023-11-19T09:19:43;12.50;88.30
1680;DHT22;838;51.794;12.258;2023-11-19T09:22:09;12.60;88.10
1680;DHT22;838;51.794;12.258;2023-11-19T09:24:35;12.60;86.80
1680;DHT22;838;51.794;12.258;2023-11-19T09:27:00;12.60;87.40
1680;DHT22;838;51.794;12.258;2023-11-19T09:29:26;12.40;86.90
1680;DHT22;838;51.794;12.258;2023-11-19T09:31:52;12.50;89.00
1680;DHT22;838;51.794;12.258;2023-11-19T09:34:17;12.40;88.60
1680;DHT22;838;51.794;12.258;2023-11-19T09:36:43;12.40;88.90
1680;DHT22;838;51.794;12.258;2023-11-19T09:39:12;12.40;86.70
1680;DHT22;838;51.794;12.258;2023-11-19T09:41:40;12.50;87.30
1680;DHT22;838;51.794;12.258;2023-11-19T09:44:08;12.40;86.80
1680;DHT22;838;51.794;12.258;2023-11-19T09:46:34;12.50;87.00
1680;DHT22;838;51.794;12.258;2023-11-19T09:49:02;12.60;86.60
1680;DHT22;838;51.794;12.258;2023-11-19T09:51:29;12.60;85.40
1680;DHT22;838;51.794;12.258;2023-11-19T09:53:55;12.50;84.50
1680;DHT22;838;51.794;12.258;2023-11-19T09:56:21;12.50;84.50
1680;DHT22;838;51.794;12.258;2023-11-19T09:58:47;12.50;84.80
1680;DHT22;838;51.794;12.258;2023-11-19T10:01:14;12.60;84.50
1680;DHT22;838;51.794;12.258;2023-11-19T10:03:41;12.60;84.00
1680;DHT22;838;51.794;12.258;2023-11-19T10:06:09;12.60;84.50
1680;DHT22;838;51.794;12.258;2023-11-19T10:08:40;12.60;84.80
1680;DHT22;838;51.794;12.258;2023-11-19T10:11:07;12.60;84.80
1680;DHT22;838;51.794;12.258;2023-11-19T10:13:37;12.60;84.50
1680;DHT22;838;51.794;12.258;2023-11-19T10:16:17;12.60;86.20
1680;DHT22;838;51.794;12.258;2023-11-19T10:18:48;12.60;86.50
1680;DHT22;838;51.794;12.258;2023-11-19T10:21:18;12.60;86.80
1680;DHT22;838;51.794;12.258;2023-11-19T10:23:51;12.70;86.00
1680;DHT22;838;51.794;12.258;2023-11-19T10:26:18;12.80;86.80
1680;DHT22;838;51.794;12.258;2023-11-19T10:28:46;12.80;86.90
1680;DHT22;838;51.794;12.258;2023-11-19T10:31:16;12.80;86.60
1680;DHT22;838;51.794;12.258;2023-11-19T10:33:43;12.80;87.20
1680;DHT22;838;51.794;12.258;2023-11-19T10:36:11;12.80;87.70
1680;DHT22;838;51.794;12.258;2023-11-19T10:38:38;12.70;87.30
1680;DHT22;838;51.794;12.258;2023-11-19T10:41:04;12.50;88.10
1680;DHT22;838;51.794;12.258;2023-11-19T10:43:31;12.30;89.20
1680;DHT22;838;51.794;12.258;2023-11-19T10:46:09;12.30;89.50
1680;DHT22;838;51.794;12.258;2023-11-19T10:48:36;12.30;90.40
1680;DHT22;838;51.794;12.258;2023-11-19T10:51:05;12.70;90.60
1680;DHT22;838;51.794;12.258;2023-11-19T10:53:37;13.00;87.50
1680;DHT22;838;51.794;12.258;2023-11-19T10:56:06;13.40;86.20
1680;DHT22;838;51.794;12.258;2023-11-19T10:58:35;13.70;82.70
1680;DHT22;838;51.794;12.258;2023-11-19T11:01:13;13.80;79.80
1680;DHT22;838;51.794;12.258;2023-11-19T11:03:40;13.70;80.20
1680;DHT22;838;51.794;12.258;2023-11-19T11:06:06;13.40;81.50
1680;DHT22;838;51.794;12.258;2023-11-19T11:08:36;13.20;83.60
1680;DHT22;838;51.794;12.258;2023-11-19T11:11:03;13.20;85.10
1680;DHT22;838;51.794;12.258;2023-11-19T11:13:31;13.20;85.10
1680;DHT22;838;51.794;12.258;2023-11-19T11:15:58;13.30;84.60
1680;DHT22;838;51.794;12.258;2023-11-19T11:18:24;13.30;83.60
1680;DHT22;838;51.794;12.258;2023-11-19T11:21:00;13.40;83.90
1680;DHT22;838;51.794;12.258;2023-11-19T11:29:04;14.00;79.70
1680;DHT22;838;51.794;12.258;2023-11-19T11:37:18;14.40;79.10
1680;DHT22;838;51.794;12.258;2023-11-19T11:39:46;14.60;78.10
1680;DHT22;838;51.794;12.258;2023-11-19T11:45:17;14.60;74.70
1680;DHT22;838;51.794;12.258;2023-11-19T11:50:10;14.60;74.00
1680;DHT22;838;51.794;12.258;2023-11-19T11:57:59;14.80;71.80
1680;DHT22;838;51.794;12.258;2023-11-19T12:00:32;15.10;68.90
1680;DHT22;838;51.794;12.258;2023-11-19T12:03:02;15.10;67.80
1680;DHT22;838;51.794;12.258;2023-11-19T12:05:30;15.10;68.10
1680;DHT22;838;51.794;12.258;2023-11-19T12:07:57;15.10;65.40
1680;DHT22;838;51.794;12.258;2023-11-19T12:10:24;15.20;64.80
1680;DHT22;838;51.794;12.258;2023-11-19T12:12:52;15.20;64.10
1680;DHT22;838;51.794;12.258;2023-11-19T12:15:18;15.20;63.80
1680;DHT22;838;51.794;12.258;2023-11-19T12:17:48;15.20;58.40
1680;DHT22;838;51.794;12.258;2023-11-19T12:20:15;15.30;58.70
1680;DHT22;838;51.794;12.258;2023-11-19T12:22:42;15.30;54.10
1680;DHT22;838;51.794;12.258;2023-11-19T12:25:10;15.20;53.30
1680;DHT22;838;51.794;12.258;2023-11-19T12:27:43;15.20;50.20
1680;DHT22;838;51.794;12.258;2023-11-19T12:30:09;15.20;49.80
1680;DHT22;838;51.794;12.258;2023-11-19T12:32:40;15.20;47.80
1680;DHT22;838;51.794;12.258;2023-11-19T12:35:06;15.20;38.40
1680;DHT22;838;51.794;12.258;2023-11-19T12:37:32;15.20;38.60
1680;DHT22;838;51.794;12.258;2023-11-19T12:39:58;15.20;33.40
1680;DHT22;838;51.794;12.258;2023-11-19T12:42:36;15.00;27.50
1680;DHT22;838;51.794;12.258;2023-11-19T12:45:05;14.80;30.50
1680;DHT22;838;51.794;12.258;2023-11-19T12:47:31;14.90;30.30
1680;DHT22;838;51.794;12.258;2023-11-19T12:49:57;15.00;28.40
1680;DHT22;838;51.794;12.258;2023-11-19T12:52:23;15.10;27.30
1680;DHT22;838;51.794;12.258;2023-11-19T12:54:50;15.10;25.60
1680;DHT22;838;51.794;12.258;2023-11-19T12:57:16;15.00;23.10
1680;DHT22;838;51.794;12.258;2023-11-19T12:59:55;14.90;23.10
1680;DHT22;838;51.794;12.258;2023-11-19T13:05:26;14.90;20.30
1680;DHT22;838;51.794;12.258;2023-11-19T13:08:01;14.70;19.90
1680;DHT22;838;51.794;12.258;2023-11-19T13:10:29;14.60;21.30
1680;DHT22;838;51.794;12.258;2023-11-19T13:13:07;14.50;22.90
1680;DHT22;838;51.794;12.258;2023-11-19T13:15:34;14.50;23.00
1680;DHT22;838;51.794;12.258;2023-11-19T13:18:00;14.60;24.60
1680;DHT22;838;51.794;12.258;2023-11-19T13:20:26;14.60;24.60
1680;DHT22;838;51.794;12.258;2023-11-19T13:22:56;14.70;24.70
1680;DHT22;838;51.794;12.258;2023-11-19T13:25:22;14.80;22.90
1680;DHT22;838;51.794;12.258;2023-11-19T13:27:48;14.90;23.00
1680;DHT22;838;51.794;12.258;2023-11-19T13:30:14;14.90;22.30
1680;DHT22;838;51.794;12.258;2023-11-19T13:32:40;15.00;22.70
1680;DHT22;838;51.794;12.258;2023-11-19T13:35:06;14.90;22.60
1680;DHT22;838;51.794;12.258;2023-11-19T13:37:34;14.90;22.60
1680;DHT22;838;51.794;12.258;2023-11-19T13:40:00;14.90;23.00
1680;DHT22;838;51.794;12.258;2023-11-19T13:42:26;14.90;23.50
1680;DHT22;838;51.794;12.258;2023-11-19T13:44:52;14.90;24.20
1680;DHT22;838;51.794;12.258;2023-11-19T13:47:18;14.80;25.60
1680;DHT22;838;51.794;12.258;2023-11-19T13:49:47;14.80;23.30
1680;DHT22;838;51.794;12.258;2023-11-19T13:52:12;14.80;23.20
1680;DHT22;838;51.794;12.258;2023-11-19T13:54:38;14.80;22.10
1680;DHT22;838;51.794;12.258;2023-11-19T13:57:04;14.80;22.00
1680;DHT22;838;51.794;12.258;2023-11-19T13:59:31;14.60;20.10
1680;DHT22;838;51.794;12.258;2023-11-19T14:01:58;14.50;19.90
1680;DHT22;838;51.794;12.258;2023-11-19T14:04:23;14.40;20.60
1680;DHT22;838;51.794;12.258;2023-11-19T14:06:50;14.40;22.00
1680;DHT22;838;51.794;12.258;2023-11-19T14:09:15;14.20;21.90
1680;DHT22;838;51.794;12.258;2023-11-19T14:11:41;14.20;23.80
1680;DHT22;838;51.794;12.258;2023-11-19T14:14:07;14.20;23.70
1680;DHT22;838;51.794;12.258;2023-11-19T14:16:33;14.10;23.10
1680;DHT22;838;51.794;12.258;2023-11-19T14:18:59;14.00;24.00
1680;DHT22;838;51.794;12.258;2023-11-19T14:21:25;14.00;24.60
1680;DHT22;838;51.794;12.258;2023-11-19T14:23:52;13.90;25.10
1680;DHT22;838;51.794;12.258;2023-11-19T14:26:18;13.90;25.80
1680;DHT22;838;51.794;12.258;2023-11-19T14:28:44;13.90;26.20
1680;DHT22;838;51.794;12.258;2023-11-19T14:31:09;13.80;27.90
1680;DHT22;838;51.794;12.258;2023-11-19T14:33:35;13.80;28.50
1680;DHT22;838;51.794;12.258;2023-11-19T14:36:03;13.80;29.40
1680;DHT22;838;51.794;12.258;2023-11-19T14:38:29;13.70;29.30
1680;DHT22;838;51.794;12.258;2023-11-19T14:40:55;13.70;28.90
1680;DHT22;838;51.794;12.258;2023-11-19T14:43:21;13.80;29.40
1680;DHT22;838;51.794;12.258;2023-11-19T14:45:47;13.80;27.00
1680;DHT22;838;51.794;12.258;2023-11-19T14:48:12;13.80;25.90
1680;DHT22;838;51.794;12.258;2023-11-19T14:50:38;13.90;25.30
1680;DHT22;838;51.794;12.258;2023-11-19T14:53:04;13.90;22.90
1680;DHT22;838;51.794;12.258;2023-11-19T14:55:29;13.90;22.40
1680;DHT22;838;51.794;12.258;2023-11-19T14:57:56;14.00;22.40
1680;DHT22;838;51.794;12.258;2023-11-19T15:00:22;14.00;21.80
1680;DHT22;838;51.794;12.258;2023-11-19T15:02:48;14.10;21.80
1680;DHT22;838;51.794;12.258;2023-11-19T15:05:13;14.00;21.80
1680;DHT22;838;51.794;12.258;2023-11-19T15:07:39;13.90;22.20
1680;DHT22;838;51.794;12.258;2023-11-19T15:10:08;13.80;23.60
1680;DHT22;838;51.794;12.258;2023-11-19T15:12:38;13.70;23.30
1680;DHT22;838;51.794;12.258;2023-11-19T15:15:08;13.70;22.70
1680;DHT22;838;51.794;12.258;2023-11-19T15:17:40;13.70;24.20
1680;DHT22;838;51.794;12.258;2023-11-19T15:20:07;13.60;24.80
1680;DHT22;838;51.794;12.258;2023-11-19T15:22:33;13.60;25.30
1680;DHT22;838;51.794;12.258;2023-11-19T15:24:58;13.50;25.20
1680;DHT22;838;51.794;12.258;2023-11-19T15:27:24;13.50;25.90
1680;DHT22;838;51.794;12.258;2023-11-19T15:29:50;13.50;25.80
1680;DHT22;838;51.794;12.258;2023-11-19T15:32:15;13.50;26.80
1680;DHT22;838;51.794;12.258;2023-11-19T15:34:41;13.30;26.80
1680;DHT22;838;51.794;12.258;2023-11-19T15:37:07;13.30;27.60
1680;DHT22;838;51.794;12.258;2023-11-19T15:39:34;13.20;27.40
1680;DHT22;838;51.794;12.258;2023-11-19T15:42:02;13.20;28.10
1680;DHT22;838;51.794;12.258;2023-11-19T15:44:27;13.20;27.90
1680;DHT22;838;51.794;12.258;2023-11-19T15:46:54;13.20;26.40
1680;DHT22;838;51.794;12.258;2023-11-19T15:49:20;13.20;25.50
1680;DHT22;838;51.794;12.258;2023-11-19T15:51:46;13.30;24.20
1680;DHT22;838;51.794;12.258;2023-11-19T15:54:12;13.40;23.80
1680;DHT22;838;51.794;12.258;2023-11-19T15:56:37;13.40;22.20
1680;DHT22;838;51.794;12.258;2023-11-19T15:59:03;13.40;21.70
1680;DHT22;838;51.794;12.258;2023-11-19T16:01:33;13.40;21.80
1680;DHT22;838;51.794;12.258;2023-11-19T16:03:59;13.40;22.30
1680;DHT22;838;51.794;12.258;2023-11-19T16:06:24;13.30;22.90
1680;DHT22;838;51.794;12.258;2023-11-19T16:08:50;13.40;21.80
1680;DHT22;838;51.794;12.258;2023-11-19T16:11:16;13.40;21.80
1680;DHT22;838;51.794;12.258;2023-11-19T16:13:42;13.40;21.70
1680;DHT22;838;51.794;12.258;2023-11-19T16:16:08;13.30;21.50
1680;DHT22;838;51.794;12.258;2023-11-19T16:18:34;13.30;22.60
1680;DHT22;838;51.794;12.258;2023-11-19T16:21:00;13.10;23.50
1680;DHT22;838;51.794;12.258;2023-11-19T16:23:27;13.10;24.80
1680;DHT22;838;51.794;12.258;2023-11-19T16:25:53;13.00;25.80
1680;DHT22;838;51.794;12.258;2023-11-19T16:28:19;13.00;26.20
1680;DHT22;838;51.794;12.258;2023-11-19T16:30:45;12.90;26.50